X  Chiuso Dati meteorologici dell'aviazione (METAR)     KOMA Eppley Airfield
Temperatura
61°F Temperatura
61°F Punto di rugiada
100% Umidità



Vento
8 MPH
13 KM/H
4 M/S
7 KTS



360°
Nord
Condizioni attuali

Patches Of Nebbia Patches Of Nebbia
Pressione 1021.72 (hPa) - 30.17 (inHg)
Visibilità 9 (miglio) - 14.5 (km)
Aeroporto
Aeroporto-code KOMA

Posizione: Eppley Airfield
Distanza: 20 (mi)

Metar:
KOMA 171152Z 36007KT 9SM BCFG FEW001 16/16 A3017 RMK AO2 SLP211 FG ALONG RIVER E-SE 70001 T01610156 10189 20156 53009

Ore: 08-17-2022 06:52 CDT